Time;durP1;ratioP1;P1;durP2;ratioP2;P2;SDS_P1;SDS_P2;PMS_P1;PMS_P2;Temp;Humidity;BMP_temperature;BMP_pressure;BME280_temperature;BME280_humidity;BME280_pressure;Samples;Min_cycle;Max_cycle;Signal;HPM_P1;HPM_P2
2021/10/02 00:44:53;;;;;;;31.88;17.50;;;;;;;9.99;100.00;101317.00;5094491;28;20047;-71
2021/10/02 00:47:20;;;;;;;35.40;17.70;;;;;;;10.02;100.00;101313.25;5094431;28;20427;-71
2021/10/02 00:49:46;;;;;;;29.55;15.93;;;;;;;10.04;100.00;101319.28;5093825;28;20033;-71
2021/10/02 00:52:17;;;;;;;42.08;18.70;;;;;;;10.08;100.00;101323.41;5094416;28;20024;-71
2021/10/02 00:54:44;;;;;;;36.25;19.25;;;;;;;10.12;100.00;101327.50;5093730;28;20358;-71
2021/10/02 00:57:10;;;;;;;36.00;18.85;;;;;;;10.16;100.00;101331.59;5094148;28;20028;-71
2021/10/02 00:59:37;;;;;;;30.70;17.38;;;;;;;10.17;100.00;101332.44;5075237;28;20166;-72
2021/10/02 01:02:27;;;;;;;30.55;17.00;;;;;;;10.16;100.00;101326.28;5094030;28;20046;-71
2021/10/02 01:05:12;;;;;;;42.42;18.27;;;;;;;10.16;100.00;101334.25;5093003;28;20044;-71
2021/10/02 01:07:52;;;;;;;40.85;17.77;;;;;;;10.16;100.00;101328.94;5093393;28;20030;-71
2021/10/02 01:10:32;;;;;;;37.35;16.35;;;;;;;10.16;100.00;101328.09;5093690;28;20036;-71
2021/10/02 01:13:13;;;;;;;34.40;16.85;;;;;;;10.15;100.00;101321.94;5093919;28;20024;-71
2021/10/02 01:15:44;;;;;;;44.28;18.40;;;;;;;10.16;100.00;101317.47;5093012;28;20024;-71
2021/10/02 01:18:28;;;;;;;46.22;19.15;;;;;;;10.19;100.00;101307.41;5093917;28;20464;-71
2021/10/02 01:20:53;;;;;;;45.08;18.52;;;;;;;10.22;100.00;101309.81;5093845;28;20032;-71
2021/10/02 01:23:27;;;;;;;47.83;19.58;;;;;;;10.25;100.00;101306.06;5093520;28;20027;-71
2021/10/02 01:26:11;;;;;;;50.35;19.52;;;;;;;10.26;100.00;101297.13;5093320;28;20105;-71
2021/10/02 01:28:40;;;;;;;47.03;19.08;;;;;;;10.26;100.00;101296.28;5092961;28;20028;-71
2021/10/02 01:31:19;;;;;;;40.55;19.15;;;;;;;10.25;100.00;101295.41;5093458;28;20028;-71
2021/10/02 01:33:56;;;;;;;43.60;19.27;;;;;;;10.25;100.00;101298.09;5092686;28;20357;-71
2021/10/02 01:47:47;;;;;;;49.22;22.00;;;;;;;10.29;100.00;101285.41;5092617;28;20085;-72
2021/10/02 01:50:13;;;;;;;46.20;20.63;;;;;;;10.27;100.00;101287.31;5093209;28;20064;-72
2021/10/02 01:52:42;;;;;;;46.67;19.23;;;;;;;10.21;100.00;101286.00;5092481;28;20054;-72
2021/10/02 01:55:10;;;;;;;45.13;19.30;;;;;;;10.10;100.00;101278.91;5075012;28;20434;-72
2021/10/02 01:57:41;;;;;;;42.83;19.42;;;;;;;10.00;100.00;101280.63;5092433;28;20051;-72
2021/10/02 02:00:11;;;;;;;46.83;19.67;;;;;;;9.89;100.00;101274.34;5092926;28;20372;-72
2021/10/02 02:02:40;;;;;;;47.45;18.67;;;;;;;9.81;100.00;101278.63;5092099;28;20082;-72
2021/10/02 02:05:10;;;;;;;44.55;18.38;;;;;;;9.71;100.00;101278.50;5074895;28;20031;-72
2021/10/02 02:07:37;;;;;;;42.20;19.58;;;;;;;9.63;100.00;101279.13;5074337;28;20078;-72
2021/10/02 02:10:06;;;;;;;45.08;20.00;;;;;;;9.60;100.00;101290.00;5092845;28;20051;-72
2021/10/02 02:12:34;;;;;;;50.55;20.55;;;;;;;9.56;100.00;101283.22;5092745;28;20032;-72
2021/10/02 02:15:06;;;;;;;48.95;21.48;;;;;;;9.53;100.00;101281.66;5092840;28;20027;-72
2021/10/02 02:17:34;;;;;;;51.08;20.90;;;;;;;9.49;100.00;101279.38;5092374;28;20040;-72
2021/10/02 02:20:03;;;;;;;62.25;23.23;;;;;;;9.44;100.00;101281.56;5092394;28;20036;-72
2021/10/02 02:22:28;;;;;;;47.65;20.85;;;;;;;9.39;100.00;101270.44;5092759;28;20032;-72
2021/10/02 02:24:54;;;;;;;54.40;23.38;;;;;;;9.31;100.00;101269.22;5092127;28;20028;-72
2021/10/02 02:27:19;;;;;;;53.45;23.58;;;;;;;9.27;100.00;101266.94;5074711;28;20032;-72
2021/10/02 02:29:47;;;;;;;47.90;19.85;;;;;;;9.22;100.00;101261.97;5092016;28;20036;-71
2021/10/02 02:32:13;;;;;;;55.03;22.20;;;;;;;9.16;100.00;101255.34;5092331;28;20392;-72
2021/10/02 02:34:38;;;;;;;43.80;19.27;;;;;;;9.13;100.00;101254.75;5091981;28;20032;-72
2021/10/02 02:37:04;;;;;;;56.50;23.15;;;;;;;9.10;100.00;101250.50;5092811;28;20036;-71
2021/10/02 02:39:29;;;;;;;55.50;22.08;;;;;;;9.07;100.00;101252.56;5092373;28;20124;-72
2021/10/02 02:41:55;;;;;;;53.72;23.10;;;;;;;9.05;100.00;101252.69;5091443;28;20296;-72
2021/10/02 02:44:21;;;;;;;61.67;24.15;;;;;;;9.00;100.00;101245.09;5074399;28;20380;-71
2021/10/02 02:46:55;;;;;;;60.35;23.33;;;;;;;9.00;100.00;101237.13;5091603;28;20046;-70
2021/10/02 02:49:34;;;;;;;73.68;27.20;;;;;;;9.05;100.00;101238.56;5092700;28;20024;-70
2021/10/02 02:52:05;;;;;;;62.17;25.17;;;;;;;9.10;100.00;101234.56;5092310;28;20082;-71
2021/10/02 02:54:38;;;;;;;;;;;;;;;9.13;100.00;101234.34;5097073;28;20058;-71
2021/10/02 02:57:14;;;;;;;62.22;22.40;;;;;;;9.15;100.00;101236.88;5096792;28;19947;-71
2021/10/02 03:00:11;;;;;;;61.22;23.40;;;;;;;9.11;100.00;101238.09;5095829;28;20070;-71
2021/10/02 03:02:41;;;;;;;59.13;22.00;;;;;;;9.06;100.00;101234.94;5086307;28;20506;-71
2021/10/02 03:05:07;;;;;;;69.05;25.73;;;;;;;9.00;100.00;101239.78;5096493;28;20065;-71
2021/10/02 03:07:37;;;;;;;57.40;23.50;;;;;;;8.92;100.00;101242.16;5096299;28;20028;-71
2021/10/02 03:10:02;;;;;;;54.45;22.63;;;;;;;8.85;100.00;101238.28;5095588;28;20028;-70
2021/10/02 03:12:32;;;;;;;58.42;22.33;;;;;;;8.79;100.00;101236.09;5095837;28;20039;-70
2021/10/02 03:15:00;;;;;;;78.63;25.38;;;;;;;8.74;100.00;101236.47;5095550;28;20028;-71
2021/10/02 03:17:27;;;;;;;50.22;20.08;;;;;;;8.69;100.00;101240.41;5095965;28;20060;-71
2021/10/02 03:19:53;;;;;;;48.90;19.25;;;;;;;8.65;100.00;101247.78;5095200;28;20036;-71
2021/10/02 03:22:20;;;;;;;67.00;23.55;;;;;;;8.62;100.00;101246.19;5096199;28;20471;-70
2021/10/02 03:24:48;;;;;;;44.60;19.38;;;;;;;8.58;100.00;101243.91;5095432;28;20024;-71
2021/10/02 03:27:14;;;;;;;55.03;22.27;;;;;;;8.56;100.00;101238.72;5096106;28;20086;-70
2021/10/02 03:29:41;;;;;;;69.90;24.23;;;;;;;8.52;100.00;101244.38;5095918;28;20448;-70
2021/10/02 03:32:08;;;;;;;61.53;24.00;;;;;;;8.47;100.00;101240.25;5096037;28;20032;-71
2021/10/02 03:34:35;;;;;;;51.92;20.00;;;;;;;8.45;100.00;101234.22;5095714;28;20110;-70
2021/10/02 03:37:01;;;;;;;51.15;21.13;;;;;;;8.44;100.00;101234.34;5094956;28;20042;-70
2021/10/02 03:39:27;;;;;;;60.00;23.50;;;;;;;8.44;100.00;101242.28;5095599;28;20044;-70
2021/10/02 03:42:08;;;;;;;60.28;22.20;;;;;;;8.42;100.00;101242.38;5094700;28;20040;-70
2021/10/02 03:44:33;;;;;;;69.22;25.80;;;;;;;8.45;100.00;101247.47;5095576;28;20107;-70
2021/10/02 03:46:59;;;;;;;77.85;28.23;;;;;;;8.53;100.00;101238.09;5094927;28;20052;-70
2021/10/02 03:49:24;;;;;;;81.00;29.35;;;;;;;8.60;100.00;101242.00;5095577;28;20036;-70
2021/10/02 03:51:50;;;;;;;70.20;26.83;;;;;;;8.65;100.00;101237.16;5094920;28;20032;-70
2021/10/02 03:54:15;;;;;;;91.57;30.05;;;;;;;8.72;100.00;101224.25;5095467;28;20039;-70
2021/10/02 03:56:40;;;;;;;56.55;24.67;;;;;;;8.82;100.00;101233.22;5095385;28;20452;-71
2021/10/02 03:59:06;;;;;;;86.97;31.60;;;;;;;8.87;100.00;101230.19;5094576;28;20460;-71
2021/10/02 04:01:31;;;;;;;54.13;21.92;;;;;;;8.87;100.00;101232.84;5095212;28;20457;-71
2021/10/02 04:03:56;;;;;;;53.35;22.85;;;;;;;8.86;100.00;101231.19;5093249;28;20468;-70
2021/10/02 04:06:22;;;;;;;48.80;21.42;;;;;;;8.86;100.00;101231.19;5095458;28;20358;-71
2021/10/02 04:08:47;;;;;;;64.13;25.17;;;;;;;8.85;100.00;101232.13;5094533;28;20118;-72
2021/10/02 04:11:12;;;;;;;49.38;21.73;;;;;;;8.83;100.00;101235.75;5095333;28;20126;-71
2021/10/02 04:13:38;;;;;;;62.80;23.83;;;;;;;8.80;100.00;101238.63;5095083;28;20400;-71
2021/10/02 04:16:04;;;;;;;58.67;21.45;;;;;;;8.83;100.00;101238.41;5094104;28;20392;-71
2021/10/02 04:18:31;;;;;;;56.70;21.48;;;;;;;8.82;100.00;101233.22;5094879;28;20040;-71
2021/10/02 04:20:57;;;;;;;51.15;20.55;;;;;;;8.78;100.00;101229.13;5094266;28;20044;-71
2021/10/02 04:23:22;;;;;;;50.13;20.77;;;;;;;8.76;100.00;101226.59;5094838;28;20115;-71
2021/10/02 04:25:48;;;;;;;46.33;19.13;;;;;;;8.73;100.00;101216.22;5094079;28;20127;-73
2021/10/02 04:28:13;;;;;;;50.08;20.35;;;;;;;8.73;100.00;101205.59;5094861;28;20036;-72
2021/10/02 04:30:38;;;;;;;48.60;19.52;;;;;;;8.74;100.00;101217.88;5094731;28;20105;-73
2021/10/02 04:33:04;;;;;;;43.65;19.80;;;;;;;8.76;100.00;101217.78;5094070;28;20366;-71
2021/10/02 04:35:29;;;;;;;67.40;20.73;;;;;;;8.77;100.00;101216.81;5094701;28;20085;-71
2021/10/02 04:37:54;;;;;;;48.15;18.67;;;;;;;8.76;100.00;101223.06;5093780;28;20036;-72
2021/10/02 04:40:20;;;;;;;56.63;22.83;;;;;;;8.76;100.00;101218.63;5093997;28;20047;-71
2021/10/02 04:42:45;;;;;;;63.25;23.95;;;;;;;8.78;100.00;101210.56;5094566;28;20441;-71
2021/10/02 04:45:11;;;;;;;51.28;22.55;;;;;;;8.80;100.00;101198.00;5093593;28;20032;-71
2021/10/02 04:47:36;;;;;;;48.13;19.88;;;;;;;8.85;100.00;101202.94;5094302;28;20032;-71
2021/10/02 04:50:02;;;;;;;48.92;21.42;;;;;;;8.86;100.00;101209.97;5093748;28;20411;-72
2021/10/02 04:52:27;;;;;;;54.42;22.83;;;;;;;8.86;100.00;101210.78;5094430;28;20086;-71
2021/10/02 04:54:53;;;;;;;58.80;23.25;;;;;;;8.89;100.00;101217.69;5093325;28;20028;-72
2021/10/02 04:57:19;;;;;;;46.95;20.50;;;;;;;8.92;100.00;101218.28;5076423;28;20038;-71
2021/10/02 04:59:44;;;;;;;58.35;22.13;;;;;;;8.95;100.00;101214.53;5093843;28;20028;-70
2021/10/02 05:02:09;;;;;;;47.80;18.98;;;;;;;8.95;100.00;101219.84;5093133;28;20483;-71
2021/10/02 05:04:35;;;;;;;57.97;22.92;;;;;;;8.97;100.00;101210.81;5094060;28;20040;-71
2021/10/02 05:07:00;;;;;;;53.65;21.65;;;;;;;9.00;100.00;101215.88;5093417;28;20522;-71
2021/10/02 05:09:26;;;;;;;57.53;22.55;;;;;;;9.02;100.00;101215.75;5094022;28;20068;-71
2021/10/02 05:11:51;;;;;;;57.90;24.38;;;;;;;9.07;100.00;101221.53;5094064;28;20082;-71
2021/10/02 05:14:16;;;;;;;70.63;24.42;;;;;;;9.10;100.00;101216.00;5093211;28;20590;-71
2021/10/02 05:16:42;;;;;;;59.08;23.23;;;;;;;9.10;100.00;101218.66;5093364;28;20052;-71
2021/10/02 05:19:07;;;;;;;66.93;24.20;;;;;;;9.08;100.00;101217.09;5092943;28;20395;-71
2021/10/02 05:21:34;;;;;;;50.33;20.55;;;;;;;9.03;100.00;101211.28;5093305;28;20139;-71
2021/10/02 05:23:59;;;;;;;79.25;26.33;;;;;;;9.02;100.00;101214.91;5093127;28;20103;-71
2021/10/02 05:26:25;;;;;;;74.13;27.25;;;;;;;9.03;100.00;101221.91;5093580;28;20032;-72
2021/10/02 05:28:50;;;;;;;65.20;25.60;;;;;;;9.03;100.00;101229.88;5093665;28;20075;-72
2021/10/02 05:31:17;;;;;;;94.53;29.92;;;;;;;9.02;100.00;101221.06;5074530;28;20089;-71
2021/10/02 05:33:42;;;;;;;76.00;28.02;;;;;;;9.05;100.00;101225.31;5093561;28;20038;-71
2021/10/02 05:36:07;;;;;;;88.25;30.33;;;;;;;9.11;100.00;101217.69;5092718;28;20119;-72
2021/10/02 05:38:33;;;;;;;92.72;33.72;;;;;;;9.21;100.00;101209.88;5093264;28;20050;-71
2021/10/02 05:40:58;;;;;;;105.82;33.85;;;;;;;9.26;100.00;101201.53;5092655;28;20426;-72
2021/10/02 05:43:24;;;;;;;117.07;36.03;;;;;;;9.30;100.00;101201.16;5093235;28;20036;-71
2021/10/02 05:45:49;;;;;;;118.15;36.30;;;;;;;9.32;100.00;101204.53;5093210;28;20077;-71
2021/10/02 05:48:15;;;;;;;104.25;34.83;;;;;;;9.35;100.00;101209.59;5092532;28;20044;-71
2021/10/02 05:50:40;;;;;;;123.43;38.10;;;;;;;9.41;100.00;101202.13;5093286;28;20356;-71
2021/10/02 05:53:06;;;;;;;106.80;35.28;;;;;;;9.45;100.00;101211.50;5092777;28;20464;-72
2021/10/02 05:55:31;;;;;;;124.57;38.08;;;;;;;9.50;100.00;101215.50;5093222;28;20479;-72
2021/10/02 05:57:57;;;;;;;143.88;37.92;;;;;;;9.56;100.00;101210.66;5092961;28;20032;-72
2021/10/02 06:00:22;;;;;;;110.88;35.83;;;;;;;9.56;100.00;101202.69;5092689;28;20024;-72
2021/10/02 06:02:47;;;;;;;118.85;36.85;;;;;;;9.55;100.00;101198.34;5093050;28;20032;-72
2021/10/02 06:05:13;;;;;;;99.38;32.15;;;;;;;9.53;100.00;101204.63;5092374;28;20032;-72
2021/10/02 06:07:38;;;;;;;95.10;32.60;;;;;;;9.51;100.00;101211.03;5092866;28;20034;-71
2021/10/02 06:10:04;;;;;;;92.35;33.78;;;;;;;9.50;100.00;101212.84;5092385;28;20388;-71
2021/10/02 06:12:29;;;;;;;94.60;30.80;;;;;;;9.48;100.00;101209.47;5092883;28;20028;-72
2021/10/02 06:14:54;;;;;;;119.40;34.53;;;;;;;9.46;100.00;101216.69;5092927;28;20067;-72
2021/10/02 06:17:20;;;;;;;105.90;31.92;;;;;;;9.44;100.00;101208.03;5092484;28;20105;-72
2021/10/02 06:19:45;;;;;;;72.20;26.98;;;;;;;9.45;100.00;101208.84;5093121;28;20036;-72
2021/10/02 06:22:11;;;;;;;95.53;31.33;;;;;;;9.46;100.00;101211.38;5092386;28;20086;-72
2021/10/02 06:24:37;;;;;;;67.40;25.83;;;;;;;9.45;100.00;101209.72;5092766;28;20036;-72
2021/10/02 06:27:02;;;;;;;89.55;27.25;;;;;;;9.44;100.00;101202.72;5091354;28;20040;-73
2021/10/02 06:29:28;;;;;;;89.07;28.25;;;;;;;9.44;100.00;101207.19;5092336;28;20096;-72
2021/10/02 06:31:53;;;;;;;87.35;28.27;;;;;;;9.44;100.00;101209.84;5074229;28;20028;-72
2021/10/02 06:34:18;;;;;;;63.75;24.95;;;;;;;9.45;100.00;101211.50;5091582;28;20039;-72
2021/10/02 06:36:44;;;;;;;82.00;26.17;;;;;;;9.46;100.00;101211.38;5092643;28;20035;-72
2021/10/02 06:39:11;;;;;;;79.28;26.88;;;;;;;9.47;100.00;101204.28;5091867;28;20032;-72
2021/10/02 06:41:36;;;;;;;81.25;28.33;;;;;;;9.51;100.00;101206.56;5092135;28;20111;-72
2021/10/02 06:44:03;;;;;;;82.55;27.15;;;;;;;9.54;100.00;101192.19;5092502;28;20028;-72
2021/10/02 06:46:29;;;;;;;53.63;20.80;;;;;;;9.61;100.00;101195.19;5092440;28;20036;-72
2021/10/02 06:48:55;;;;;;;54.38;20.65;;;;;;;9.62;100.00;101191.56;5092541;28;20077;-71
2021/10/02 06:51:20;;;;;;;48.15;16.70;;;;;;;9.65;100.00;101188.66;5091744;28;20429;-72
2021/10/02 06:53:45;;;;;;;63.42;21.63;;;;;;;9.65;100.00;101186.00;5092604;28;20396;-71
2021/10/02 06:56:11;;;;;;;63.60;21.67;;;;;;;9.68;100.00;101181.28;5073580;28;20042;-72
2021/10/02 06:58:36;;;;;;;47.40;18.55;;;;;;;9.72;100.00;101181.88;5092271;28;20032;-71
2021/10/02 07:01:01;;;;;;;57.88;18.88;;;;;;;9.74;100.00;101174.63;5092439;28;20411;-71
2021/10/02 07:03:27;;;;;;;34.38;14.60;;;;;;;9.74;100.00;101182.59;5091772;28;20032;-71
2021/10/02 07:05:52;;;;;;;40.50;15.95;;;;;;;9.73;100.00;101190.69;5074247;28;20055;-71
2021/10/02 07:08:17;;;;;;;44.40;14.70;;;;;;;9.77;100.00;101179.69;5091317;28;20043;-72
2021/10/02 07:10:43;;;;;;;46.20;17.45;;;;;;;9.77;100.00;101174.38;5092091;28;20111;-72
2021/10/02 07:13:08;;;;;;;36.45;15.95;;;;;;;9.79;100.00;101172.47;5091555;28;20127;-72
2021/10/02 07:15:34;;;;;;;34.55;12.15;;;;;;;9.76;100.00;101169.19;5092214;28;20032;-72
2021/10/02 07:17:59;;;;;;;30.42;12.82;;;;;;;9.77;100.00;101166.41;5091618;28;20083;-71
2021/10/02 07:20:27;;;;;;;33.58;12.20;;;;;;;9.77;100.00;101168.22;5091504;28;20035;-71
2021/10/02 07:22:53;;;;;;;35.22;13.05;;;;;;;9.77;100.00;101169.06;5092286;28;20036;-71
2021/10/02 07:25:21;;;;;;;33.38;13.48;;;;;;;9.80;100.00;101160.84;5091394;28;20346;-71
2021/10/02 07:27:46;;;;;;;28.58;13.02;;;;;;;9.82;100.00;101158.06;5092281;28;20032;-72
2021/10/02 07:30:13;;;;;;;29.70;9.60;;;;;;;9.82;100.00;101164.22;5091206;28;20034;-72
2021/10/02 07:32:40;;;;;;;28.98;11.35;;;;;;;9.85;100.00;101163.09;5091965;28;20032;-72
2021/10/02 07:35:06;;;;;;;27.55;11.88;;;;;;;9.89;100.00;101157.41;5092180;28;20032;-71
2021/10/02 07:37:32;;;;;;;29.25;12.27;;;;;;;9.94;100.00;101149.09;5091099;28;20098;-72
2021/10/02 07:39:57;;;;;;;32.47;14.18;;;;;;;10.01;100.00;101149.41;5095408;28;20032;-71
2021/10/02 07:42:24;;;;;;;48.95;14.00;;;;;;;10.05;100.00;101145.53;5094690;28;20028;-71
2021/10/02 07:44:57;;;;;;;29.92;11.57;;;;;;;10.12;100.00;101157.34;5093504;28;20051;-71
2021/10/02 07:47:23;;;;;;;31.77;10.15;;;;;;;10.15;100.00;101159.75;5094478;28;20116;-71
2021/10/02 07:49:50;;;;;;;30.70;10.30;;;;;;;10.17;100.00;101170.25;5095681;28;20126;-71
2021/10/02 07:52:15;;;;;;;19.90;8.80;;;;;;;10.20;100.00;101177.97;5089794;28;20028;-71
2021/10/02 07:54:42;;;;;;;21.35;9.65;;;;;;;10.20;100.00;101181.47;5092451;28;20369;-71
2021/10/02 07:57:07;;;;;;;21.48;8.90;;;;;;;10.28;100.00;101167.50;5092717;28;20031;-71
2021/10/02 07:59:34;;;;;;;28.85;9.55;;;;;;;10.35;100.00;101167.88;5091978;28;20102;-71
2021/10/02 08:02:00;;;;;;;18.83;8.75;;;;;;;10.46;100.00;101161.66;5092577;28;20082;-72
2021/10/02 08:04:25;;;;;;;17.98;7.63;;;;;;;10.59;100.00;101163.13;5091396;28;20067;-71
2021/10/02 08:06:51;;;;;;;16.52;7.35;;;;;;;10.69;100.00;101154.34;5092674;28;20036;-71
2021/10/02 08:09:16;;;;;;;21.10;6.45;;;;;;;10.77;100.00;101150.06;5073538;28;20102;-71
2021/10/02 08:11:43;;;;;;;18.20;6.05;;;;;;;10.93;100.00;101135.44;5091927;28;20032;-71
2021/10/02 08:14:09;;;;;;;13.48;4.65;;;;;;;10.99;96.48;101142.00;5091967;28;20040;-71
2021/10/02 08:16:37;;;;;;;13.40;4.20;;;;;;;11.17;95.62;101143.06;5091656;28;20080;-70
2021/10/02 08:19:03;;;;;;;19.70;4.70;;;;;;;11.18;93.99;101130.59;5079247;28;20032;-70
2021/10/02 08:21:29;;;;;;;13.23;5.07;;;;;;;11.29;96.01;101136.66;5075809;28;20032;-69
2021/10/02 08:23:54;;;;;;;16.50;7.05;;;;;;;11.38;94.89;101135.00;5092085;28;20074;-71
2021/10/02 08:26:21;;;;;;;16.98;6.15;;;;;;;11.59;94.84;101132.22;5090939;28;20035;-73
2021/10/02 08:28:49;;;;;;;13.45;5.63;;;;;;;11.79;92.85;101138.41;5090742;28;20040;-72
2021/10/02 08:31:17;;;;;;;17.90;5.70;;;;;;;12.05;93.54;101123.72;5091954;28;20028;-73
2021/10/02 08:33:43;;;;;;;15.27;5.50;;;;;;;12.45;94.76;101130.66;5091766;28;20028;-74
2021/10/02 08:36:09;;;;;;;19.00;5.07;;;;;;;12.85;89.82;101130.41;5091727;28;20039;-71
2021/10/02 08:38:35;;;;;;;11.63;4.43;;;;;;;13.53;91.81;101125.69;5090677;28;20155;-71
2021/10/02 08:41:02;;;;;;;10.77;4.53;;;;;;;14.00;84.30;101120.13;5090465;28;20119;-71
2021/10/02 08:43:28;;;;;;;11.65;4.28;;;;;;;14.71;79.51;101117.44;5090169;28;20085;-72
2021/10/02 08:45:54;;;;;;;8.82;4.00;;;;;;;15.36;76.87;101114.19;5091277;28;20039;-71
2021/10/02 08:48:20;;;;;;;11.82;4.38;;;;;;;16.09;74.20;101099.16;5085049;28;20041;-72
2021/10/02 08:50:48;;;;;;;10.73;3.83;;;;;;;15.78;71.45;101096.31;5070126;28;20076;-71
2021/10/02 08:53:15;;;;;;;14.57;4.45;;;;;;;15.04;74.62;101091.63;5077398;28;20035;-71
2021/10/02 08:55:42;;;;;;;14.48;4.40;;;;;;;14.71;78.13;101082.63;5089814;28;20031;-71
2021/10/02 08:58:08;;;;;;;19.60;4.00;;;;;;;14.41;77.67;101079.41;5079650;28;20093;-72
2021/10/02 09:00:34;;;;;;;13.00;3.72;;;;;;;14.37;78.65;101083.41;5070092;28;20037;-72
2021/10/02 09:03:00;;;;;;;13.25;4.25;;;;;;;14.47;76.95;101084.13;5070775;28;20111;-72
2021/10/02 09:05:27;;;;;;;9.63;4.38;;;;;;;15.59;72.35;101076.00;5070476;28;20151;-72
2021/10/02 09:07:59;;;;;;;11.65;3.70;;;;;;;16.81;66.37;101070.63;5071094;28;20047;-73
2021/10/02 09:10:26;;;;;;;12.05;3.97;;;;;;;17.04;66.42;101074.22;5070277;28;20135;-71
2021/10/02 09:12:51;;;;;;;14.77;3.90;;;;;;;15.94;68.17;101072.16;5070677;28;20032;-71
2021/10/02 09:15:18;;;;;;;11.50;3.40;;;;;;;14.96;67.51;101072.84;5070615;28;20451;-70
2021/10/02 09:17:45;;;;;;;12.70;3.85;;;;;;;14.23;73.72;101066.09;5070161;28;20088;-71
2021/10/02 09:20:11;;;;;;;16.80;4.65;;;;;;;13.63;74.55;101072.13;5071033;28;20038;-72
2021/10/02 09:22:37;;;;;;;11.15;4.25;;;;;;;13.30;75.94;101071.78;5069986;28;20155;-72
2021/10/02 09:25:09;;;;;;;9.75;4.10;;;;;;;13.11;79.37;101078.13;5070589;28;20525;-72
2021/10/02 09:27:36;;;;;;;15.50;3.88;;;;;;;12.88;78.99;101066.00;5069393;28;20031;-70
2021/10/02 09:30:11;;;;;;;9.18;3.78;;;;;;;12.85;79.54;101058.28;5052516;28;20412;-72
2021/10/02 09:32:43;;;;;;;12.52;3.35;;;;;;;13.05;80.04;101059.00;5069992;28;20063;-71
2021/10/02 09:35:14;;;;;;;12.73;3.47;;;;;;;13.25;78.08;101048.19;5070725;28;20071;-71
2021/10/02 09:37:42;;;;;;;7.60;3.13;;;;;;;13.17;80.28;101051.63;5069852;28;20044;-71
2021/10/02 09:40:22;;;;;;;12.25;4.00;;;;;;;13.20;79.75;101045.16;5070143;28;20054;-72
2021/10/02 09:42:51;;;;;;;12.00;4.20;;;;;;;13.15;80.08;101040.28;5069408;28;20037;-74
2021/10/02 09:45:21;;;;;;;13.20;4.60;;;;;;;13.17;79.51;101043.63;5070314;28;20411;-72
2021/10/02 09:47:52;;;;;;;12.77;4.82;;;;;;;13.28;79.68;101039.03;5069760;28;20118;-72
2021/10/02 09:50:23;;;;;;;13.88;7.00;;;;;;;13.25;80.62;101045.53;5069896;28;20082;-72
2021/10/02 09:52:54;;;;;;;17.70;9.55;;;;;;;13.17;80.83;101040.94;5069683;28;20029;-71
2021/10/02 09:55:23;;;;;;;;;;;;;;;13.11;81.04;101032.72;5070551;28;20028;-72
2021/10/02 09:57:56;;;;;;;20.05;8.32;;;;;;;13.18;81.59;101031.09;5069101;28;20346;-72
2021/10/02 10:00:39;;;;;;;16.65;9.75;;;;;;;13.15;81.36;101029.59;5070177;28;20457;-70
2021/10/02 10:03:08;;;;;;;23.13;9.48;;;;;;;13.19;82.62;101022.09;5069272;28;20465;-72
2021/10/02 10:05:38;;;;;;;17.48;10.35;;;;;;;13.10;82.82;101021.16;5069081;28;20079;-71
2021/10/02 10:08:06;;;;;;;22.25;13.23;;;;;;;13.08;84.07;101011.63;5069852;28;20094;-71
2021/10/02 10:10:36;;;;;;;28.20;13.25;;;;;;;13.00;84.44;101009.69;5069052;28;20040;-71
2021/10/02 10:13:16;;;;;;;30.15;15.65;;;;;;;12.93;85.08;100996.13;5051815;28;20043;-72
2021/10/02 10:15:42;;;;;;;24.48;15.80;;;;;;;12.91;85.33;101003.44;5068976;28;20043;-72
2021/10/02 10:18:11;;;;;;;22.25;14.35;;;;;;;12.85;83.75;101001.34;5069369;28;20048;-71
2021/10/02 10:20:58;;;;;;;23.08;14.07;;;;;;;12.86;85.96;100987.84;5069407;28;20518;-71
2021/10/02 10:23:32;;;;;;;29.75;15.02;;;;;;;12.88;85.95;100974.34;5051574;28;20440;-71
2021/10/02 10:26:00;;;;;;;28.23;15.77;;;;;;;12.94;85.60;100967.56;5076768;28;20028;-71
2021/10/02 10:28:29;;;;;;;22.70;14.85;;;;;;;13.00;85.73;100967.81;5089077;28;20124;-71
2021/10/02 10:31:25;;;;;;;25.48;13.20;;;;;;;13.10;84.35;100965.06;5091471;28;20032;-71
2021/10/02 10:33:52;;;;;;;23.27;15.20;;;;;;;13.15;84.90;100962.78;5073725;28;20456;-71
2021/10/02 10:36:19;;;;;;;25.20;13.98;;;;;;;13.20;85.42;100963.16;5092492;28;20028;-71
2021/10/02 10:38:46;;;;;;;21.60;13.18;;;;;;;13.25;83.75;100965.38;5091651;28;20117;-71
2021/10/02 10:41:13;;;;;;;27.25;14.23;;;;;;;13.35;85.42;100963.50;5092736;28;20071;-71
2021/10/02 10:43:39;;;;;;;21.10;12.07;;;;;;;13.38;84.34;100968.53;5091611;28;20392;-71
2021/10/02 10:46:06;;;;;;;25.95;12.48;;;;;;;13.37;84.38;100949.97;5092263;28;20024;-72
2021/10/02 10:48:32;;;;;;;21.35;12.15;;;;;;;13.35;85.01;100939.44;5092338;28;20035;-71
2021/10/02 10:51:04;;;;;;;24.05;13.60;;;;;;;13.38;84.46;100931.09;5092278;28;20063;-71
2021/10/02 10:53:52;;;;;;;20.90;13.20;;;;;;;13.47;84.00;100931.19;5092914;28;20149;-71
2021/10/02 10:56:37;;;;;;;25.52;13.57;;;;;;;13.52;84.46;100924.34;5078791;28;20469;-71
2021/10/02 10:59:03;;;;;;;22.13;13.10;;;;;;;13.56;83.43;100915.03;5092613;28;20145;-71
2021/10/02 11:01:37;;;;;;;26.02;13.40;;;;;;;13.51;83.27;100914.69;5092393;28;20032;-71
2021/10/02 11:04:03;;;;;;;18.67;12.82;;;;;;;13.46;84.04;100914.28;5092425;28;20024;-71
2021/10/02 11:06:52;;;;;;;27.73;13.02;;;;;;;13.37;83.23;100915.22;5074119;28;20387;-71
2021/10/02 11:09:35;;;;;;;19.52;11.38;;;;;;;13.43;82.12;100900.41;5092373;28;20064;-70
2021/10/02 11:12:00;;;;;;;18.88;11.70;;;;;;;13.51;84.07;100912.00;5091922;28;20453;-71
2021/10/02 11:14:47;;;;;;;21.23;10.07;;;;;;;13.63;83.34;100906.38;5095094;28;20043;-71
2021/10/02 11:17:34;;;;;;;19.52;8.30;;;;;;;13.75;82.26;100897.13;5096349;28;20104;-71
2021/10/02 11:20:25;;;;;;;18.05;7.22;;;;;;;13.73;80.45;100888.41;5095456;28;20035;-71
2021/10/02 11:23:28;;;;;;;17.45;6.50;;;;;;;13.83;81.31;100882.94;5063766;28;20551;-70
2021/10/02 11:26:23;;;;;;;15.73;6.43;;;;;;;13.85;81.65;100873.78;5095677;28;20097;-71
2021/10/02 11:29:14;;;;;;;12.10;6.18;;;;;;;13.88;80.78;100872.59;5095414;28;20032;-71
2021/10/02 11:31:40;;;;;;;13.07;5.10;;;;;;;13.87;81.09;100865.59;5081167;28;20040;-71
2021/10/02 11:34:15;;;;;;;12.57;5.10;;;;;;;13.78;81.41;100866.53;5095631;28;20048;-70
2021/10/02 11:36:42;;;;;;;15.43;5.05;;;;;;;13.80;81.11;100857.34;5095029;28;20127;-71
2021/10/02 11:39:26;;;;;;;13.43;5.40;;;;;;;13.98;82.30;100841.22;5095553;28;20035;-70
2021/10/02 11:41:54;;;;;;;14.50;3.70;;;;;;;14.23;78.65;100846.66;5095340;28;20040;-71
2021/10/02 11:44:32;;;;;;;10.40;4.30;;;;;;;14.60;80.32;100834.66;5095815;28;20024;-70
2021/10/02 11:47:34;;;;;;;12.68;4.03;;;;;;;14.96;77.65;100818.34;5094945;28;20039;-71
2021/10/02 11:50:11;;;;;;;10.13;3.80;;;;;;;15.10;76.98;100806.91;5094976;28;20028;-70
2021/10/02 11:52:45;;;;;;;11.00;3.90;;;;;;;15.21;75.87;100805.75;5095532;28;20031;-71
2021/10/02 11:55:32;;;;;;;15.27;4.07;;;;;;;15.20;75.68;100797.84;5095638;28;20036;-71
2021/10/02 11:58:18;;;;;;;13.68;4.45;;;;;;;15.14;74.31;100792.19;5094737;28;20020;-70
2021/10/02 12:00:43;;;;;;;13.50;3.70;;;;;;;15.22;75.27;100798.53;5094303;28;20071;-71
2021/10/02 12:03:10;;;;;;;8.65;3.70;;;;;;;15.17;75.51;100785.66;5095068;28;20055;-71
2021/10/02 12:05:36;;;;;;;12.77;3.50;;;;;;;15.16;74.18;100773.25;5095321;28;20097;-70
2021/10/02 12:08:01;;;;;;;15.77;3.88;;;;;;;15.01;74.50;100772.28;5094363;28;20032;-70
2021/10/02 12:10:27;;;;;;;10.23;3.45;;;;;;;14.89;75.22;100787.88;5095337;28;20380;-71
2021/10/02 12:12:53;;;;;;;13.50;4.10;;;;;;;14.57;75.49;100762.72;5094586;28;20460;-71
2021/10/02 12:15:29;;;;;;;13.57;3.88;;;;;;;14.34;77.13;100757.19;5095099;28;20024;-71